createdAt,value
2023-11-23T00:00:50.900Z,100782.19
2023-11-23T00:03:18.133Z,100777.06
2023-11-23T00:05:45.501Z,100783.03
2023-11-23T00:08:13.395Z,100784.75
2023-11-23T00:10:41.030Z,100788.28
2023-11-23T00:13:08.268Z,100791.81
2023-11-23T00:15:35.426Z,100777.03
2023-11-23T00:18:02.621Z,100789.13
2023-11-23T00:20:29.974Z,100796.09
2023-11-23T00:23:00.400Z,100789.13
2023-11-23T00:25:29.003Z,100777.84
2023-11-23T00:27:56.399Z,100798.81
2023-11-23T00:30:23.714Z,100800.63
2023-11-23T00:32:51.174Z,100802.50
2023-11-23T00:35:18.638Z,100785.03
2023-11-23T00:37:48.378Z,100804.06
2023-11-23T00:40:15.687Z,100790.22
2023-11-23T00:42:43.009Z,100814.78
2023-11-23T00:45:10.905Z,100819.16
2023-11-23T00:47:38.389Z,100817.53
2023-11-23T00:50:06.531Z,100826.34
2023-11-23T00:52:33.675Z,100804.59
2023-11-23T00:55:00.811Z,100820.13
2023-11-23T00:57:27.980Z,100820.19
2023-11-23T00:59:55.190Z,100815.84
2023-11-23T01:02:23.058Z,100816.06
2023-11-23T01:04:50.449Z,100813.97
2023-11-23T01:07:17.570Z,100821.03
2023-11-23T01:09:44.705Z,100806.19
2023-11-23T01:12:11.940Z,100821.84
2023-11-23T01:14:39.168Z,100797.31
2023-11-23T01:17:06.356Z,100809.38
2023-11-23T01:19:33.723Z,100790.13
2023-11-23T01:22:00.970Z,100813.63
2023-11-23T01:24:28.098Z,100824.25
2023-11-23T01:26:55.312Z,100820.72
2023-11-23T01:29:22.441Z,100810.50
2023-11-23T01:31:49.773Z,100827.94
2023-11-23T01:34:16.975Z,100817.63
2023-11-23T01:36:44.061Z,100821.03
2023-11-23T01:39:11.323Z,100811.72
2023-11-23T01:41:38.530Z,100811.72
2023-11-23T01:44:06.096Z,100808.25
2023-11-23T01:46:33.161Z,100803.75
2023-11-23T01:49:02.429Z,100803.03
2023-11-23T01:51:29.873Z,100809.09
2023-11-23T01:53:57.597Z,100810.91
2023-11-23T01:56:27.369Z,100818.88
2023-11-23T01:58:54.579Z,100803.31
2023-11-23T02:01:21.922Z,100819.00
2023-11-23T02:03:50.252Z,100813.88
2023-11-23T02:06:17.539Z,100807.03
2023-11-23T02:08:44.716Z,100819.19
2023-11-23T02:11:12.256Z,100813.03
2023-11-23T02:13:39.970Z,100813.94
2023-11-23T02:16:08.403Z,100806.94
2023-11-23T02:18:39.526Z,100807.97
2023-11-23T02:21:08.519Z,100823.03
2023-11-23T02:23:36.180Z,100815.88
2023-11-23T02:26:03.583Z,100822.00
2023-11-23T02:28:34.973Z,100828.16
2023-11-23T02:31:03.578Z,100815.81
2023-11-23T02:33:30.761Z,100822.78
2023-11-23T02:35:57.992Z,100815.72
2023-11-23T02:38:25.059Z,100814.81
2023-11-23T02:40:52.245Z,100817.47
2023-11-23T02:43:19.336Z,100821.91
2023-11-23T02:45:47.598Z,100815.88
2023-11-23T02:48:14.778Z,100821.97
2023-11-23T02:50:42.568Z,100818.47
2023-11-23T02:53:18.679Z,100823.75
2023-11-23T02:55:45.840Z,100814.13
2023-11-23T02:58:12.944Z,100796.63
2023-11-23T03:00:40.409Z,100807.03
2023-11-23T03:03:07.639Z,100807.97
2023-11-23T03:05:34.864Z,100808.19
2023-11-23T03:08:02.055Z,100810.97
2023-11-23T03:10:29.168Z,100804.06
2023-11-23T03:12:56.445Z,100819.03
2023-11-23T03:15:23.693Z,100821.75
2023-11-23T03:17:51.034Z,100820.09
2023-11-23T03:20:18.194Z,100815.84
2023-11-23T03:22:45.633Z,100807.09
2023-11-23T03:25:12.648Z,100837.69
2023-11-23T03:27:39.832Z,100840.34
2023-11-23T03:30:07.599Z,100839.50
2023-11-23T03:32:34.871Z,100847.47
2023-11-23T03:35:02.165Z,100850.97
2023-11-23T03:37:29.515Z,100846.69
2023-11-23T03:39:58.179Z,100841.47
2023-11-23T03:42:26.697Z,100850.91
2023-11-23T03:44:53.945Z,100850.03
2023-11-23T03:47:21.096Z,100853.63
2023-11-23T03:49:48.225Z,100860.53
2023-11-23T03:52:15.616Z,100846.69
2023-11-23T03:54:42.707Z,100858.88
2023-11-23T03:57:10.051Z,100874.53
2023-11-23T03:59:37.946Z,100871.91
2023-11-23T04:02:05.420Z,100873.63
2023-11-23T04:04:32.639Z,100870.97
2023-11-23T04:07:00.120Z,100874.56
2023-11-23T04:09:27.234Z,100864.19
2023-11-23T04:11:54.732Z,100890.56
2023-11-23T04:14:22.516Z,100873.25
2023-11-23T04:16:49.657Z,100895.31
2023-11-23T04:19:16.716Z,100886.59
2023-11-23T04:21:44.631Z,100877.94
2023-11-23T04:24:11.701Z,100893.63
2023-11-23T04:26:42.318Z,100893.63
2023-11-23T04:29:10.309Z,100898.88
2023-11-23T04:31:37.318Z,100890.91
2023-11-23T04:34:04.504Z,100876.06
2023-11-23T04:36:31.780Z,100886.66
2023-11-23T04:39:00.412Z,100901.53
2023-11-23T04:41:27.496Z,100893.69
2023-11-23T04:43:54.928Z,100905.75
2023-11-23T04:46:22.362Z,100906.66
2023-11-23T04:48:49.757Z,100903.28
2023-11-23T04:51:17.767Z,100907.66
2023-11-23T04:53:45.033Z,100916.41
2023-11-23T04:56:12.606Z,100928.81
2023-11-23T04:58:40.014Z,100928.81
2023-11-23T05:01:07.270Z,100928.81
2023-11-23T05:03:34.885Z,100922.66
2023-11-23T05:06:03.049Z,100916.63
2023-11-23T05:08:30.190Z,100930.69
2023-11-23T05:10:57.248Z,100928.09
2023-11-23T05:13:24.552Z,100918.63
2023-11-23T05:15:51.611Z,100952.91
2023-11-23T05:18:18.831Z,100944.19
2023-11-23T05:20:46.206Z,100933.97
2023-11-23T05:23:13.398Z,100948.88
2023-11-23T05:25:40.461Z,100940.97
2023-11-23T05:28:07.748Z,100949.81
2023-11-23T05:30:34.863Z,100954.94
2023-11-23T05:33:02.102Z,100973.28
2023-11-23T05:35:31.404Z,100966.03
2023-11-23T05:38:01.530Z,100957.41
2023-11-23T05:40:29.234Z,100976.63
2023-11-23T05:43:03.236Z,100982.81
2023-11-23T05:45:33.804Z,100961.81
2023-11-23T05:48:01.341Z,100986.31
2023-11-23T05:50:28.480Z,100965.28
2023-11-23T05:52:55.638Z,100989.03
2023-11-23T05:55:22.859Z,100998.63
2023-11-23T05:57:49.919Z,101007.34
2023-11-23T06:00:17.574Z,100996.78
2023-11-23T06:02:44.763Z,101009.00
2023-11-23T06:05:12.012Z,101017.59
2023-11-23T06:07:39.390Z,100992.91
2023-11-23T06:10:08.003Z,101005.09
2023-11-23T06:12:36.784Z,101006.56
2023-11-23T06:15:04.696Z,101011.59
2023-11-23T06:17:32.730Z,100993.75
2023-11-23T06:19:59.839Z,101010.66
2023-11-23T06:22:26.889Z,101017.72
2023-11-23T06:24:54.151Z,101004.22
2023-11-23T06:27:22.848Z,101001.19
2023-11-23T06:29:49.939Z,101014.97
2023-11-23T06:32:18.412Z,101019.44
2023-11-23T06:34:46.608Z,101003.91
2023-11-23T06:37:13.789Z,101001.81
2023-11-23T06:39:41.088Z,100996.53
2023-11-23T06:42:08.342Z,100998.34
2023-11-23T06:44:35.690Z,101014.38
2023-11-23T06:47:03.305Z,101025.03
2023-11-23T06:49:30.461Z,101024.34
2023-11-23T06:51:58.754Z,101027.94
2023-11-23T06:54:25.926Z,101018.50
2023-11-23T06:56:53.116Z,101021.03
2023-11-23T06:59:20.950Z,101021.38
2023-11-23T07:01:48.259Z,101027.69
2023-11-23T07:04:15.475Z,101026.25
2023-11-23T07:06:42.935Z,101033.31
2023-11-23T07:09:12.092Z,101025.38
2023-11-23T07:11:40.194Z,101035.88
2023-11-23T07:14:07.858Z,101040.47
2023-11-23T07:16:35.483Z,101046.38
2023-11-23T07:19:02.575Z,101030.13
2023-11-23T07:21:30.159Z,101042.06
2023-11-23T07:23:57.391Z,101033.50
2023-11-23T07:26:25.514Z,101051.09
2023-11-23T07:28:52.569Z,101040.56
2023-11-23T07:31:20.093Z,101047.38
2023-11-23T07:33:47.286Z,101038.31
2023-11-23T07:36:15.035Z,101037.75
2023-11-23T07:38:43.168Z,101057.84
2023-11-23T07:41:12.352Z,101043.75
2023-11-23T07:43:39.693Z,101051.38
2023-11-23T07:46:07.074Z,101050.97
2023-11-23T07:48:34.355Z,101063.31
2023-11-23T07:51:01.638Z,101057.06
2023-11-23T07:53:32.107Z,101060.69
2023-11-23T07:55:59.563Z,101065.13
2023-11-23T07:58:26.956Z,101072.78
2023-11-23T08:00:54.368Z,101072.84
2023-11-23T08:03:22.749Z,101055.75
2023-11-23T08:05:50.098Z,101078.69
2023-11-23T08:08:17.250Z,101064.00
2023-11-23T08:10:44.421Z,101065.94
2023-11-23T08:13:11.577Z,101081.56
2023-11-23T08:15:38.899Z,101072.75
2023-11-23T08:18:08.463Z,101073.31
2023-11-23T08:20:38.481Z,101084.38
2023-11-23T08:23:06.497Z,101085.59
2023-11-23T08:25:33.673Z,101094.28
2023-11-23T08:28:00.855Z,101096.13
2023-11-23T08:30:29.617Z,101089.44
2023-11-23T08:32:57.520Z,101084.00
2023-11-23T08:35:24.956Z,101092.09
2023-11-23T08:37:52.177Z,101088.44
2023-11-23T08:40:19.228Z,101093.09
2023-11-23T08:42:46.335Z,101084.53
2023-11-23T08:45:13.984Z,101092.13
2023-11-23T08:47:41.195Z,101086.03
2023-11-23T08:50:10.383Z,101085.25
2023-11-23T08:52:39.750Z,101084.59
2023-11-23T08:55:10.438Z,101091.19
2023-11-23T08:57:38.828Z,101089.16
2023-11-23T09:00:14.819Z,101060.91
2023-11-23T09:02:42.085Z,101087.28
2023-11-23T09:05:12.746Z,101091.19
2023-11-23T09:07:40.615Z,101066.81
2023-11-23T09:10:08.798Z,101085.31
2023-11-23T09:12:36.155Z,101064.63
2023-11-23T09:15:06.266Z,101065.44
2023-11-23T09:17:34.730Z,101067.16
2023-11-23T09:20:01.864Z,101072.09
2023-11-23T09:22:29.501Z,101068.19
2023-11-23T09:24:56.849Z,101066.22
2023-11-23T09:27:24.512Z,101083.66
2023-11-23T09:29:51.780Z,101063.78
2023-11-23T09:32:18.949Z,101069.13
2023-11-23T09:34:45.995Z,101072.16
2023-11-23T09:37:13.221Z,101052.31
2023-11-23T09:39:40.349Z,101048.03
2023-11-23T09:42:09.486Z,101055.06
2023-11-23T09:44:37.778Z,101062.06
2023-11-23T09:47:06.237Z,101055.72
2023-11-23T09:49:33.580Z,101055.25
2023-11-23T09:52:02.680Z,101049.81
2023-11-23T09:54:34.207Z,101050.94
2023-11-23T09:57:02.668Z,101052.19
2023-11-23T09:59:30.221Z,101057.38
2023-11-23T10:02:06.295Z,101048.66
2023-11-23T10:04:34.164Z,101040.66
2023-11-23T10:07:03.204Z,101038.88
2023-11-23T10:09:35.012Z,101017.75
2023-11-23T10:12:04.483Z,101033.91
2023-11-23T10:14:31.707Z,101020.22
2023-11-23T10:16:58.928Z,101029.75
2023-11-23T10:19:26.074Z,101034.16
2023-11-23T10:22:01.249Z,101048.19
2023-11-23T10:24:29.162Z,101034.91
2023-11-23T10:26:56.827Z,101020.22
2023-11-23T10:29:31.124Z,101027.53
2023-11-23T10:32:02.164Z,101014.28
2023-11-23T10:34:32.712Z,101006.69
2023-11-23T10:37:00.720Z,101019.41
2023-11-23T10:39:29.453Z,101016.50
2023-11-23T10:41:57.849Z,101002.19
2023-11-23T10:44:25.159Z,101004.94
2023-11-23T10:46:55.195Z,101007.53
2023-11-23T10:49:23.532Z,101011.06
2023-11-23T10:51:50.615Z,101004.78
2023-11-23T10:54:17.828Z,100994.50
2023-11-23T10:56:45.105Z,100994.38
2023-11-23T10:59:21.788Z,100996.75
2023-11-23T11:01:52.397Z,100983.53
2023-11-23T11:04:19.645Z,100991.03
2023-11-23T11:06:49.005Z,100987.09
2023-11-23T11:09:17.816Z,100984.88
2023-11-23T11:11:46.189Z,100976.41
2023-11-23T11:14:15.022Z,100978.78
2023-11-23T11:16:42.268Z,100968.69
2023-11-23T11:19:12.777Z,100978.78
2023-11-23T11:21:48.593Z,100963.44
2023-11-23T11:24:20.462Z,100975.97
2023-11-23T11:26:51.288Z,100975.28
2023-11-23T11:29:18.980Z,100974.47
2023-11-23T11:31:51.219Z,100959.59
2023-11-23T11:34:21.514Z,100976.38
2023-11-23T11:36:57.882Z,100974.88
2023-11-23T11:39:41.306Z,100932.88
2023-11-23T11:42:11.473Z,100966.13
2023-11-23T11:44:44.275Z,100964.25
2023-11-23T11:47:12.348Z,100962.22
2023-11-23T11:49:39.437Z,100960.13
2023-11-23T11:52:14.062Z,100957.31
2023-11-23T11:54:41.252Z,100947.00
2023-11-23T11:57:09.105Z,100953.69
2023-11-23T11:59:37.606Z,100933.88
2023-11-23T12:02:07.144Z,100940.75
2023-11-23T12:04:36.685Z,100921.84
2023-11-23T12:07:04.112Z,100931.28
2023-11-23T12:09:38.990Z,100921.84
2023-11-23T12:12:12.222Z,100910.53
2023-11-23T12:14:39.405Z,100930.34
2023-11-23T12:17:14.488Z,100934.91
2023-11-23T12:19:54.617Z,100934.09
2023-11-23T12:22:28.167Z,100927.25
2023-11-23T12:24:56.994Z,100930.31
2023-11-23T12:27:26.568Z,100933.81
2023-11-23T12:29:53.999Z,100934.81
2023-11-23T12:32:21.110Z,100929.59
2023-11-23T12:34:48.307Z,100933.03
2023-11-23T12:37:16.070Z,100933.13
2023-11-23T12:39:43.221Z,100927.88
2023-11-23T12:42:10.370Z,100921.13
2023-11-23T12:44:38.039Z,100939.56
2023-11-23T12:47:05.402Z,100940.41
2023-11-23T12:49:32.554Z,100929.25
2023-11-23T12:52:00.198Z,100924.03
2023-11-23T12:54:27.330Z,100928.59
2023-11-23T12:56:54.630Z,100933.06
2023-11-23T12:59:21.821Z,100922.59
2023-11-23T13:01:49.003Z,100921.72
2023-11-23T13:04:20.926Z,100928.59
2023-11-23T13:06:49.174Z,100916.59
2023-11-23T13:09:26.667Z,100922.88
2023-11-23T13:11:57.026Z,100930.59
2023-11-23T13:14:24.323Z,100927.63
2023-11-23T13:16:51.589Z,100925.69
2023-11-23T13:19:29.180Z,100923.50
2023-11-23T13:22:02.995Z,100913.09
2023-11-23T13:24:30.916Z,100904.50
2023-11-23T13:26:58.074Z,100908.84
2023-11-23T13:29:25.131Z,100926.25
2023-11-23T13:31:53.496Z,100928.00
2023-11-23T13:34:20.970Z,100910.66
2023-11-23T13:36:48.244Z,100924.38
2023-11-23T13:39:19.283Z,100926.97
2023-11-23T13:41:47.029Z,100936.03
2023-11-23T13:44:14.641Z,100904.34
2023-11-23T13:46:42.064Z,100921.88
2023-11-23T13:49:09.427Z,100926.25
2023-11-23T13:51:36.669Z,100912.59
2023-11-23T13:54:05.834Z,100924.09
2023-11-23T13:56:33.098Z,100929.56
2023-11-23T13:59:01.176Z,100925.56
2023-11-23T14:01:28.525Z,100936.91
2023-11-23T14:03:55.902Z,100916.00
2023-11-23T14:06:23.592Z,100942.50
2023-11-23T14:08:50.975Z,100946.22
2023-11-23T14:11:20.007Z,100929.72
2023-11-23T14:13:47.344Z,100918.31
2023-11-23T14:16:14.812Z,100919.22
2023-11-23T14:18:43.436Z,100922.06
2023-11-23T14:21:12.223Z,100931.69
2023-11-23T14:23:41.576Z,100927.34
2023-11-23T14:26:12.129Z,100922.47
2023-11-23T14:28:39.307Z,100913.81
2023-11-23T14:31:09.155Z,100933.25
2023-11-23T14:33:36.344Z,100925.84
2023-11-23T14:36:04.595Z,100938.22
2023-11-23T14:38:31.859Z,100940.88
2023-11-23T14:40:59.466Z,100927.16
2023-11-23T14:43:29.286Z,100925.50
2023-11-23T14:45:57.905Z,100938.03
2023-11-23T14:48:25.227Z,100926.25
2023-11-23T14:50:52.510Z,100929.69
2023-11-23T14:53:19.757Z,100923.03
2023-11-23T14:55:47.006Z,100950.13
2023-11-23T14:58:15.438Z,100945.81
2023-11-23T15:00:42.533Z,100918.91
2023-11-23T15:03:09.937Z,100941.78
2023-11-23T15:05:37.008Z,100936.72
2023-11-23T15:08:04.870Z,100937.78
2023-11-23T15:10:32.728Z,100924.69
2023-11-23T15:12:59.857Z,100941.59
2023-11-23T15:15:31.464Z,100948.66
2023-11-23T15:18:01.389Z,100949.69
2023-11-23T15:20:31.946Z,100941.16
2023-11-23T15:22:59.269Z,100948.03
2023-11-23T15:25:27.706Z,100956.16
2023-11-23T15:27:56.329Z,100954.59
2023-11-23T15:30:23.550Z,100947.72
2023-11-23T15:32:54.476Z,100945.34
2023-11-23T15:35:21.975Z,100935.06
2023-11-23T15:37:50.732Z,100951.88
2023-11-23T15:40:18.671Z,100954.47
2023-11-23T15:42:47.233Z,100928.50
2023-11-23T15:45:19.062Z,100940.72
2023-11-23T15:47:46.440Z,100957.28
2023-11-23T15:50:13.861Z,100944.19
2023-11-23T15:52:42.294Z,100950.28
2023-11-23T15:55:13.039Z,100945.91
2023-11-23T15:57:43.351Z,100934.56
2023-11-23T16:00:13.213Z,100947.72
2023-11-23T16:02:41.659Z,100955.00
2023-11-23T16:05:12.490Z,100949.88
2023-11-23T16:07:39.853Z,100940.81
2023-11-23T16:10:07.765Z,100965.44
2023-11-23T16:12:35.305Z,100957.41
2023-11-23T16:15:02.921Z,100945.19
2023-11-23T16:17:30.292Z,100947.03
2023-11-23T16:19:57.540Z,100970.06
2023-11-23T16:22:24.743Z,100963.22
2023-11-23T16:24:53.012Z,100958.81
2023-11-23T16:27:20.327Z,100963.09
2023-11-23T16:29:49.575Z,100954.16
2023-11-23T16:32:17.726Z,100960.28
2023-11-23T16:34:44.943Z,100948.81
2023-11-23T16:37:12.833Z,100961.06
2023-11-23T16:39:40.179Z,100965.44
2023-11-23T16:42:08.483Z,100957.59
2023-11-23T16:44:36.183Z,100956.75
2023-11-23T16:47:04.534Z,100968.38
2023-11-23T16:49:32.166Z,100958.97
2023-11-23T16:51:59.442Z,100979.22
2023-11-23T16:54:26.642Z,100974.03
2023-11-23T16:56:53.849Z,100967.41
2023-11-23T16:59:21.538Z,100967.56
2023-11-23T17:01:48.745Z,100968.41
2023-11-23T17:04:19.103Z,100955.16
2023-11-23T17:06:46.541Z,100965.84
2023-11-23T17:09:14.197Z,100967.63
2023-11-23T17:11:41.452Z,100959.19
2023-11-23T17:14:12.421Z,100966.19
2023-11-23T17:16:40.523Z,100967.94
2023-11-23T17:19:08.241Z,100959.97
2023-11-23T17:21:35.519Z,100967.00
2023-11-23T17:24:02.714Z,100973.97
2023-11-23T17:26:31.359Z,100979.13
2023-11-23T17:28:59.353Z,100971.06
2023-11-23T17:31:26.741Z,100965.78
2023-11-23T17:33:54.150Z,100964.03
2023-11-23T17:36:22.001Z,100960.56
2023-11-23T17:38:49.628Z,100944.03
2023-11-23T17:41:17.990Z,100961.38
2023-11-23T17:43:48.098Z,100967.56
2023-11-23T17:46:15.690Z,100964.03
2023-11-23T17:48:43.011Z,100966.59
2023-11-23T17:51:14.965Z,100963.84
2023-11-23T17:53:42.557Z,100949.72
2023-11-23T17:56:11.325Z,100961.19
2023-11-23T17:58:38.521Z,100962.03
2023-11-23T18:01:07.298Z,100964.56
2023-11-23T18:03:35.381Z,100964.44
2023-11-23T18:06:02.878Z,100964.38
2023-11-23T18:08:30.020Z,100953.81
2023-11-23T18:11:00.292Z,100958.03
2023-11-23T18:13:30.718Z,100967.81
2023-11-23T18:15:57.973Z,100960.06
2023-11-23T18:18:25.252Z,100965.38
2023-11-23T18:20:54.306Z,100972.50
2023-11-23T18:23:22.585Z,100947.25
2023-11-23T18:25:50.272Z,100944.63
2023-11-23T18:28:18.948Z,100957.84
2023-11-23T18:30:46.250Z,100957.13
2023-11-23T18:33:13.611Z,100954.78
2023-11-23T18:35:40.853Z,100943.41
2023-11-23T18:38:08.055Z,100941.38
2023-11-23T18:40:35.297Z,100954.38
2023-11-23T18:43:04.494Z,100939.13
2023-11-23T18:45:35.062Z,100928.41
2023-11-23T18:48:03.940Z,100919.66
2023-11-23T18:50:31.219Z,100929.09
2023-11-23T18:52:59.763Z,100928.09
2023-11-23T18:55:28.971Z,100932.63
2023-11-23T18:57:56.270Z,100937.16
2023-11-23T19:00:25.065Z,100941.56
2023-11-23T19:02:54.979Z,100931.25
2023-11-23T19:05:22.426Z,100933.22
2023-11-23T19:07:49.647Z,100928.91
2023-11-23T19:10:17.230Z,100919.31
2023-11-23T19:13:03.510Z,100914.16
2023-11-23T19:15:33.779Z,100933.53
2023-11-23T19:18:01.212Z,100935.31
2023-11-23T19:20:28.469Z,100931.19
2023-11-23T19:22:55.998Z,100923.41
2023-11-23T19:25:27.242Z,100925.19
2023-11-23T19:27:57.297Z,100927.88
2023-11-23T19:30:25.452Z,100920.19
2023-11-23T19:32:53.277Z,100929.66
2023-11-23T19:35:21.533Z,100943.00
2023-11-23T19:37:53.350Z,100938.56
2023-11-23T19:40:27.221Z,100938.56
2023-11-23T19:42:55.347Z,100913.06
2023-11-23T19:45:23.002Z,100928.81
2023-11-23T19:47:51.183Z,100918.47
2023-11-23T19:50:19.269Z,100929.69
2023-11-23T19:52:46.933Z,100922.69
2023-11-23T19:55:14.613Z,100924.75
2023-11-23T19:57:42.393Z,100917.94
2023-11-23T20:00:10.227Z,100923.34
2023-11-23T20:02:38.295Z,100920.88
2023-11-23T20:05:06.321Z,100904.53
2023-11-23T20:07:36.234Z,100895.78
2023-11-23T20:10:03.507Z,100902.78
2023-11-23T20:12:30.684Z,100899.69
2023-11-23T20:14:58.985Z,100912.97
2023-11-23T20:17:27.192Z,100902.72
2023-11-23T20:19:55.464Z,100903.72
2023-11-23T20:22:22.605Z,100913.34
2023-11-23T20:24:49.887Z,100911.84
2023-11-23T20:27:17.785Z,100908.47
2023-11-23T20:29:44.935Z,100912.84
2023-11-23T20:32:12.420Z,100905.00
2023-11-23T20:34:39.954Z,100896.31
2023-11-23T20:37:07.197Z,100884.16
2023-11-23T20:39:34.608Z,100898.09
2023-11-23T20:42:01.773Z,100896.59
2023-11-23T20:44:28.940Z,100892.28
2023-11-23T20:46:57.793Z,100910.81
2023-11-23T20:49:26.488Z,100901.47
2023-11-23T20:51:54.198Z,100904.16
2023-11-23T20:54:21.532Z,100892.75
2023-11-23T20:56:49.307Z,100899.75
2023-11-23T20:59:19.680Z,100892.09
2023-11-23T21:01:47.486Z,100899.88
2023-11-23T21:04:16.006Z,100894.69
2023-11-23T21:06:52.873Z,100896.53
2023-11-23T21:09:26.668Z,100884.34
2023-11-23T21:11:57.142Z,100889.47
2023-11-23T21:14:24.924Z,100884.28
2023-11-23T21:16:52.508Z,100877.16
2023-11-23T21:19:19.653Z,100870.84
2023-11-23T21:21:47.038Z,100873.44
2023-11-23T21:24:15.161Z,100876.09
2023-11-23T21:26:42.382Z,100878.63
2023-11-23T21:29:12.770Z,100865.44
2023-11-23T21:31:40.219Z,100874.38
2023-11-23T21:34:07.454Z,100848.25
2023-11-23T21:36:36.118Z,100859.63
2023-11-23T21:39:03.326Z,100856.19
2023-11-23T21:41:30.555Z,100855.38
2023-11-23T21:43:57.834Z,100857.31
2023-11-23T21:46:26.117Z,100853.78
2023-11-23T21:48:54.079Z,100853.81
2023-11-23T21:51:23.542Z,100854.66
2023-11-23T21:53:50.979Z,100857.34
2023-11-23T21:56:18.266Z,100839.97
2023-11-23T21:58:45.598Z,100832.09
2023-11-23T22:01:13.002Z,100845.19
2023-11-23T22:03:40.480Z,100828.72
2023-11-23T22:06:07.966Z,100840.16
2023-11-23T22:08:36.364Z,100834.94
2023-11-23T22:11:04.082Z,100836.97
2023-11-23T22:13:31.314Z,100837.81
2023-11-23T22:15:59.008Z,100836.16
2023-11-23T22:18:26.480Z,100828.25
2023-11-23T22:20:54.016Z,100819.56
2023-11-23T22:23:21.677Z,100809.97
2023-11-23T22:25:49.333Z,100831.09
2023-11-23T22:28:16.720Z,100812.06
2023-11-23T22:30:45.335Z,100826.09
2023-11-23T22:33:16.167Z,100823.59
2023-11-23T22:35:43.565Z,100827.91
2023-11-23T22:38:11.113Z,100822.59
2023-11-23T22:40:38.663Z,100817.38
2023-11-23T22:43:06.194Z,100817.47
2023-11-23T22:45:33.741Z,100800.19
2023-11-23T22:48:01.056Z,100806.38
2023-11-23T22:50:28.468Z,100815.81
2023-11-23T22:52:55.651Z,100820.13
2023-11-23T22:55:23.105Z,100803.47
2023-11-23T22:57:50.207Z,100816.66
2023-11-23T23:00:26.972Z,100814.00
2023-11-23T23:02:54.412Z,100812.97
2023-11-23T23:05:22.032Z,100800.81
2023-11-23T23:07:49.150Z,100812.09
2023-11-23T23:10:16.343Z,100797.19
2023-11-23T23:12:43.434Z,100804.00
2023-11-23T23:15:11.500Z,100791.72
2023-11-23T23:17:38.574Z,100792.56
2023-11-23T23:20:07.609Z,100786.31
2023-11-23T23:22:35.009Z,100774.09
2023-11-23T23:25:04.293Z,100773.97
2023-11-23T23:27:31.443Z,100778.56
2023-11-23T23:29:58.848Z,100774.81
2023-11-23T23:32:26.082Z,100759.03
2023-11-23T23:34:53.273Z,100755.50
2023-11-23T23:37:20.519Z,100773.91
2023-11-23T23:39:48.471Z,100765.94
2023-11-23T23:42:15.606Z,100761.53
2023-11-23T23:44:43.228Z,100751.06
2023-11-23T23:47:10.350Z,100762.28
2023-11-23T23:49:37.754Z,100759.63
2023-11-23T23:52:05.311Z,100756.13
2023-11-23T23:54:32.545Z,100746.53
2023-11-23T23:56:59.666Z,100736.41
2023-11-23T23:59:28.471Z,100743.50
